Time;durP1;ratioP1;P1;durP2;ratioP2;P2;SDS_P1;SDS_P2;PMS_P1;PMS_P2;Temp;Humidity;BMP_temperature;BMP_pressure;BME280_temperature;BME280_humidity;BME280_pressure;Samples;Min_cycle;Max_cycle;Signal;HPM_P1;HPM_P2
2023/04/16 00:01:56;;;;;;;26.10;13.77;;;;;;;8.80;84.40;98213.31;7387198;19;19914;-72
2023/04/16 00:04:23;;;;;;;22.15;14.00;;;;;;;8.92;84.17;98211.25;7386491;19;19951;-73
2023/04/16 00:06:50;;;;;;;23.98;14.05;;;;;;;9.05;83.65;98209.09;7386446;19;19922;-73
2023/04/16 00:09:17;;;;;;;23.02;13.35;;;;;;;9.02;83.64;98204.13;7387901;19;19922;-74
2023/04/16 00:11:44;;;;;;;23.52;13.32;;;;;;;8.97;83.79;98209.84;7387551;19;19919;-73
2023/04/16 00:14:10;;;;;;;26.42;15.07;;;;;;;8.93;83.97;98205.03;7382680;19;19967;-73
2023/04/16 00:16:37;;;;;;;23.77;15.00;;;;;;;8.79;84.67;98214.25;7390209;19;19912;-73
2023/04/16 00:19:04;;;;;;;25.45;13.63;;;;;;;9.00;83.83;98211.34;7385773;19;19925;-73
2023/04/16 00:21:31;;;;;;;23.40;12.98;;;;;;;8.96;83.69;98208.19;7386295;19;19918;-74
2023/04/16 00:23:58;;;;;;;25.23;14.25;;;;;;;8.92;83.97;98213.91;7386762;19;19922;-74
2023/04/16 00:26:24;;;;;;;23.42;13.93;;;;;;;8.99;83.83;98213.16;7384006;19;19919;-73
2023/04/16 00:28:52;;;;;;;27.85;14.88;;;;;;;9.07;83.46;98211.59;7385256;19;19949;-73
2023/04/16 00:31:26;;;;;;;26.63;16.17;;;;;;;9.07;83.65;98215.06;7381585;19;20177;-73
2023/04/16 00:33:54;;;;;;;25.75;13.13;;;;;;;8.89;84.08;98217.66;7382039;19;19911;-73
2023/04/16 00:36:26;;;;;;;25.20;15.70;;;;;;;8.87;84.15;98211.69;7383935;19;20247;-73
2023/04/16 00:38:53;;;;;;;20.63;12.77;;;;;;;9.04;83.63;98222.44;7385158;19;19910;-73
2023/04/16 00:41:21;;;;;;;24.83;14.25;;;;;;;8.97;83.77;98216.94;7383545;19;20016;-73
2023/04/16 00:43:48;;;;;;;22.80;12.68;;;;;;;9.01;83.50;98221.75;7384630;19;19929;-73
2023/04/16 00:46:15;;;;;;;20.58;12.55;;;;;;;8.88;83.89;98216.03;7382522;19;19925;-73
2023/04/16 00:48:43;;;;;;;19.45;12.80;;;;;;;8.89;84.05;98217.66;7380549;19;19919;-73
2023/04/16 00:51:10;;;;;;;20.42;12.75;;;;;;;8.90;83.93;98216.72;7382774;19;19922;-73
2023/04/16 00:53:37;;;;;;;23.30;13.60;;;;;;;8.74;84.43;98220.00;7385682;19;19930;-72
2023/04/16 00:56:06;;;;;;;21.35;12.23;;;;;;;8.71;84.40;98214.16;7378656;19;19922;-73
2023/04/16 00:58:34;;;;;;;22.45;13.30;;;;;;;8.79;84.53;98223.03;7385100;19;19918;-72
2023/04/16 01:01:01;;;;;;;21.27;11.98;;;;;;;8.76;84.47;98222.47;7385105;19;19922;-73
2023/04/16 01:03:37;;;;;;;21.02;13.35;;;;;;;8.86;84.22;98220.59;7383100;19;19954;-73
2023/04/16 01:06:06;;;;;;;23.98;13.30;;;;;;;8.92;83.96;98221.81;7385144;19;19918;-72
2023/04/16 01:08:33;;;;;;;22.52;12.80;;;;;;;8.94;83.81;98220.69;7388682;19;19922;-73
2023/04/16 01:11:00;;;;;;;23.95;14.13;;;;;;;9.00;83.70;98219.25;7384661;19;19914;-73
2023/04/16 01:13:26;;;;;;;19.52;11.25;;;;;;;9.03;83.69;98224.25;7382940;19;19929;-73
2023/04/16 01:15:54;;;;;;;24.15;14.57;;;;;;;8.82;84.06;98221.91;7386589;19;20265;-73
2023/04/16 01:18:22;;;;;;;21.13;12.15;;;;;;;8.77;84.07;98230.25;7385187;19;19922;-73
2023/04/16 01:20:50;;;;;;;20.33;12.50;;;;;;;8.69;84.47;98227.53;7381607;19;19966;-73
2023/04/16 01:23:17;;;;;;;19.25;12.88;;;;;;;8.92;84.07;98225.28;7384484;19;19921;-73
2023/04/16 01:25:44;;;;;;;19.98;11.35;;;;;;;8.99;83.56;98230.81;7388543;19;19927;-73
2023/04/16 01:28:11;;;;;;;21.75;14.20;;;;;;;8.91;83.88;98236.81;7380235;19;20649;-72
2023/04/16 01:30:38;;;;;;;21.58;12.30;;;;;;;8.96;83.61;98237.22;7383771;19;19940;-73
2023/04/16 01:33:17;;;;;;;22.25;12.10;;;;;;;8.95;83.98;98237.34;7381953;19;19931;-73
2023/04/16 01:35:44;;;;;;;21.58;12.85;;;;;;;8.99;83.72;98238.72;7384103;19;20248;-73
2023/04/16 01:38:13;;;;;;;23.05;12.15;;;;;;;8.92;83.71;98230.56;7379093;19;19914;-73
2023/04/16 01:40:40;;;;;;;16.25;10.48;;;;;;;8.96;83.81;98234.56;7385133;19;19926;-73
2023/04/16 01:43:06;;;;;;;20.13;11.90;;;;;;;8.98;83.66;98237.06;7381503;19;19918;-73
2023/04/16 01:45:34;;;;;;;22.13;13.85;;;;;;;8.94;83.82;98236.53;7392390;19;20241;-73
2023/04/16 01:48:01;;;;;;;18.33;11.40;;;;;;;8.92;83.86;98241.09;7387693;19;19956;-74
2023/04/16 01:50:28;;;;;;;19.45;11.73;;;;;;;8.99;83.73;98238.72;7386041;19;19922;-73
2023/04/16 01:52:55;;;;;;;19.35;10.90;;;;;;;8.93;83.72;98236.69;7391399;19;19911;-73
2023/04/16 01:55:22;;;;;;;20.10;12.30;;;;;;;8.92;83.83;98242.91;7387976;19;19948;-73
2023/04/16 01:57:49;;;;;;;20.23;11.68;;;;;;;9.02;83.52;98238.41;7392927;19;19918;-73
2023/04/16 02:00:16;;;;;;;21.58;10.90;;;;;;;8.90;83.91;98239.59;7386504;19;23150;-73
2023/04/16 02:02:47;;;;;;;18.75;11.93;;;;;;;8.88;84.14;98241.56;7392399;19;19911;-73
2023/04/16 02:05:22;;;;;;;18.10;10.20;;;;;;;8.87;84.16;98235.44;7387251;19;19929;-73
2023/04/16 02:07:49;;;;;;;20.20;10.60;;;;;;;8.83;83.93;98228.81;7391454;19;19922;-73
2023/04/16 02:10:16;;;;;;;18.50;11.30;;;;;;;8.87;84.07;98239.91;7386871;19;21962;-73
2023/04/16 02:12:43;;;;;;;15.77;10.60;;;;;;;8.89;84.14;98232.66;7389551;19;19934;-73
2023/04/16 02:15:11;;;;;;;19.27;10.20;;;;;;;9.01;83.70;98236.78;7388046;19;19931;-73
2023/04/16 02:17:38;;;;;;;19.42;10.10;;;;;;;8.87;83.80;98232.81;7391655;19;19910;-73
2023/04/16 02:20:09;;;;;;;20.90;11.45;;;;;;;8.76;84.43;98228.56;7383518;19;19970;-73
2023/04/16 02:22:46;;;;;;;17.13;9.60;;;;;;;8.84;84.19;98235.75;7390251;19;19914;-73
2023/04/16 02:25:17;;;;;;;19.67;11.32;;;;;;;8.88;84.22;98241.56;7386644;19;19942;-73
2023/04/16 02:27:44;;;;;;;23.65;12.30;;;;;;;8.88;84.15;98236.31;7388495;19;19927;-73
2023/04/16 02:30:23;;;;;;;19.73;11.10;;;;;;;8.78;84.38;98246.91;7386399;19;19922;-73
2023/04/16 02:32:51;;;;;;;24.05;12.80;;;;;;;8.94;83.91;98243.63;7391072;19;20301;-73
2023/04/16 02:35:18;;;;;;;20.98;12.07;;;;;;;8.76;84.31;98247.03;7382529;19;19943;-73
2023/04/16 02:37:45;;;;;;;20.15;12.35;;;;;;;8.90;84.22;98245.72;7389829;19;20034;-73
2023/04/16 02:40:12;;;;;;;21.77;11.95;;;;;;;8.86;84.39;98238.25;7386044;19;20696;-73
2023/04/16 02:42:38;;;;;;;23.02;11.82;;;;;;;8.83;84.32;98249.09;7392268;19;19919;-73
2023/04/16 02:45:06;;;;;;;21.83;11.48;;;;;;;8.93;84.15;98244.59;7384928;19;19915;-73
2023/04/16 02:47:33;;;;;;;22.38;12.27;;;;;;;8.89;83.95;98251.13;7388020;19;19930;-73
2023/04/16 02:50:00;;;;;;;23.63;14.80;;;;;;;8.93;83.98;98244.59;7389607;19;20271;-73
2023/04/16 02:52:26;;;;;;;23.25;13.95;;;;;;;8.78;84.48;98252.19;7388082;19;19939;-72
2023/04/16 02:54:54;;;;;;;21.73;11.95;;;;;;;8.76;84.40;98249.66;7387651;19;19919;-73
2023/04/16 02:57:20;;;;;;;24.73;13.57;;;;;;;8.92;83.89;98246.38;7381856;19;20122;-73
2023/04/16 02:59:47;;;;;;;23.90;12.57;;;;;;;8.89;83.93;98251.97;7385333;19;19918;-72
2023/04/16 03:02:15;;;;;;;21.42;12.65;;;;;;;9.00;83.67;98245.66;7382869;19;19941;-73
2023/04/16 03:04:42;;;;;;;28.33;14.20;;;;;;;8.90;83.94;98248.38;7384744;19;20372;-72
2023/04/16 03:07:10;;;;;;;24.45;15.10;;;;;;;8.81;84.30;98256.31;7387811;19;20352;-72
2023/04/16 03:09:36;;;;;;;28.00;14.23;;;;;;;8.80;84.32;98247.59;7392978;19;19954;-73
2023/04/16 03:12:03;;;;;;;25.77;13.95;;;;;;;8.69;84.56;98248.63;7383457;19;19921;-73
2023/04/16 03:14:30;;;;;;;23.02;13.40;;;;;;;8.84;84.26;98254.22;7390048;19;19943;-73
2023/04/16 03:16:57;;;;;;;25.08;13.35;;;;;;;8.77;84.13;98256.63;7391549;19;19922;-73
2023/04/16 03:19:24;;;;;;;24.20;13.65;;;;;;;8.81;84.41;98257.16;7389021;19;19939;-73
2023/04/16 03:21:51;;;;;;;23.52;15.35;;;;;;;8.81;84.60;98257.16;7390826;19;20462;-72
2023/04/16 03:24:18;;;;;;;24.25;14.13;;;;;;;8.79;84.36;98267.00;7389891;19;20037;-72
2023/04/16 03:26:47;;;;;;;24.42;13.13;;;;;;;8.74;84.72;98262.19;7392305;19;19926;-72
2023/04/16 03:29:14;;;;;;;24.98;13.57;;;;;;;8.71;84.78;98259.84;7384203;19;19923;-72
2023/04/16 03:31:41;;;;;;;23.08;13.30;;;;;;;8.62;84.96;98262.53;7384375;19;19919;-73
2023/04/16 03:34:08;;;;;;;24.45;14.57;;;;;;;8.57;85.27;98260.31;7383070;19;20269;-73
2023/04/16 03:36:35;;;;;;;22.00;11.88;;;;;;;8.64;85.24;98266.69;7383555;19;20477;-72
2023/04/16 03:39:02;;;;;;;23.92;12.75;;;;;;;8.69;84.88;98269.72;7385628;19;19923;-72
2023/04/16 03:41:29;;;;;;;23.15;13.00;;;;;;;8.72;84.65;98265.97;7380856;19;19938;-72
2023/04/16 03:43:56;;;;;;;22.23;12.45;;;;;;;8.73;84.79;98265.78;7389406;19;19922;-73
2023/04/16 03:46:23;;;;;;;24.77;13.45;;;;;;;8.82;84.67;98269.38;7384137;19;19926;-73
2023/04/16 03:48:51;;;;;;;23.45;13.07;;;;;;;8.77;84.49;98275.09;7386394;19;19929;-73
2023/04/16 03:51:17;;;;;;;25.50;12.60;;;;;;;8.73;84.62;98272.88;7381715;19;20343;-73
2023/04/16 03:53:44;;;;;;;22.75;12.18;;;;;;;8.82;84.44;98274.66;7384067;19;19911;-72
2023/04/16 03:56:12;;;;;;;24.17;12.75;;;;;;;8.71;84.75;98272.19;7382020;19;19931;-73
2023/04/16 03:58:39;;;;;;;24.55;14.57;;;;;;;8.72;84.72;98281.78;7386353;19;19982;-72
2023/04/16 04:01:07;;;;;;;24.42;11.30;;;;;;;8.71;84.75;98277.47;7386811;19;19925;-73
2023/04/16 04:03:35;;;;;;;25.02;12.20;;;;;;;8.89;84.39;98280.97;7382987;19;20348;-72
2023/04/16 04:06:09;;;;;;;24.52;12.55;;;;;;;8.87;83.97;98282.94;7387938;19;19926;-72
2023/04/16 04:08:35;;;;;;;21.70;11.43;;;;;;;8.77;84.60;98279.53;7383371;19;19953;-72
2023/04/16 04:11:03;;;;;;;24.90;12.65;;;;;;;8.77;84.85;98279.53;7383904;19;19915;-72
2023/04/16 04:13:32;;;;;;;27.30;12.45;;;;;;;8.78;84.53;98284.66;7384722;19;19925;-73
2023/04/16 04:15:58;;;;;;;27.17;12.43;;;;;;;8.82;84.26;98284.34;7389062;19;19923;-72
2023/04/16 04:18:26;;;;;;;25.27;14.02;;;;;;;8.70;84.87;98289.84;7385181;19;21085;-72
2023/04/16 04:20:53;;;;;;;26.17;12.85;;;;;;;8.70;84.99;98284.56;7385335;19;19954;-73
2023/04/16 04:23:24;;;;;;;25.58;12.55;;;;;;;8.72;85.00;98293.16;7385227;19;19982;-73
2023/04/16 04:25:50;;;;;;;29.10;13.40;;;;;;;8.81;84.63;98286.16;7384674;19;19915;-73
2023/04/16 04:28:17;;;;;;;27.20;13.73;;;;;;;8.77;84.72;98298.81;7378169;19;19917;-72
2023/04/16 04:30:44;;;;;;;28.55;13.75;;;;;;;8.67;85.17;98297.22;7388777;19;19918;-72
2023/04/16 04:33:11;;;;;;;29.98;15.35;;;;;;;8.67;84.93;98303.31;7386981;19;20356;-72
2023/04/16 04:35:38;;;;;;;25.02;12.93;;;;;;;8.68;84.92;98306.78;7385674;19;19915;-72
2023/04/16 04:38:06;;;;;;;29.60;13.90;;;;;;;8.76;84.79;98310.34;7390342;19;19918;-72
2023/04/16 04:40:33;;;;;;;24.83;13.07;;;;;;;8.65;85.13;98310.53;7383094;19;19919;-72
2023/04/16 04:43:01;;;;;;;30.63;14.77;;;;;;;8.78;84.73;98308.41;7385813;19;19974;-72
2023/04/16 04:45:28;;;;;;;30.17;14.35;;;;;;;8.81;84.64;98306.44;7381369;19;19933;-72
2023/04/16 04:47:57;;;;;;;30.15;14.73;;;;;;;8.75;84.73;98310.50;7386709;19;19929;-72
2023/04/16 04:50:24;;;;;;;31.15;15.15;;;;;;;8.89;84.21;98306.53;7381991;19;19921;-72
2023/04/16 04:52:51;;;;;;;32.08;14.55;;;;;;;8.75;84.55;98316.59;7389224;19;19950;-72
2023/04/16 04:55:18;;;;;;;28.88;16.92;;;;;;;8.65;84.76;98318.44;7384525;19;20279;-72
2023/04/16 04:57:45;;;;;;;27.38;13.77;;;;;;;8.74;84.72;98320.22;7384691;19;19926;-72
2023/04/16 05:00:12;;;;;;;31.08;13.73;;;;;;;8.74;84.56;98317.59;7376284;19;20700;-72
2023/04/16 05:03:00;;;;;;;30.20;13.18;;;;;;;8.86;84.39;98325.31;7385482;19;19952;-73
2023/04/16 05:05:27;;;;;;;24.40;13.43;;;;;;;8.86;84.13;98322.66;7382815;19;19919;-73
2023/04/16 05:07:54;;;;;;;32.22;14.48;;;;;;;8.91;84.10;98330.97;7388444;19;20030;-73
2023/04/16 05:10:21;;;;;;;33.97;15.50;;;;;;;8.77;84.42;98333.13;7381222;19;19910;-73
2023/04/16 05:12:48;;;;;;;27.70;15.05;;;;;;;8.93;83.88;98336.94;7388436;19;19914;-73
2023/04/16 05:15:15;;;;;;;32.03;14.02;;;;;;;8.81;84.22;98340.75;7383223;19;20616;-73
2023/04/16 05:17:42;;;;;;;33.40;15.13;;;;;;;8.86;84.10;98344.59;7381975;19;20653;-73
2023/04/16 05:20:09;;;;;;;32.15;14.98;;;;;;;8.79;84.22;98339.09;7387291;19;19939;-73
2023/04/16 05:22:36;;;;;;;37.08;15.57;;;;;;;8.83;84.44;98344.06;7390828;19;19921;-72
2023/04/16 05:25:03;;;;;;;35.05;18.33;;;;;;;8.69;84.75;98345.34;7392360;19;20269;-73
2023/04/16 05:27:29;;;;;;;30.27;13.52;;;;;;;8.76;84.73;98357.81;7389915;19;20548;-72
2023/04/16 05:29:56;;;;;;;33.70;15.25;;;;;;;8.73;84.88;98350.19;7392798;19;19922;-72
2023/04/16 05:32:26;;;;;;;36.30;15.85;;;;;;;8.67;84.97;98356.06;7386579;19;20381;-73
2023/04/16 05:34:53;;;;;;;36.28;16.27;;;;;;;8.75;84.62;98352.72;7388249;19;19941;-73
2023/04/16 05:37:20;;;;;;;33.67;15.88;;;;;;;8.85;84.63;98363.22;7387631;19;19949;-73
2023/04/16 05:39:47;;;;;;;30.42;14.90;;;;;;;8.92;84.22;98369.56;7394091;19;19926;-73
2023/04/16 05:42:13;;;;;;;38.38;17.45;;;;;;;8.84;84.48;98362.38;7391996;19;19931;-72
2023/04/16 05:44:40;;;;;;;37.53;19.38;;;;;;;8.79;84.50;98369.88;7389746;19;19917;-72
2023/04/16 05:47:08;;;;;;;40.03;17.10;;;;;;;8.75;84.71;98368.53;7394999;19;19972;-72
2023/04/16 05:49:38;;;;;;;40.33;17.45;;;;;;;8.86;84.52;98375.44;7385362;19;19931;-73
2023/04/16 05:52:05;;;;;;;38.13;19.65;;;;;;;8.90;84.42;98376.78;7386743;19;19922;-72
2023/04/16 05:54:31;;;;;;;39.03;17.92;;;;;;;8.94;84.17;98375.53;7390139;19;19922;-72
2023/04/16 05:56:59;;;;;;;42.60;18.05;;;;;;;8.92;84.16;98378.31;7392314;19;19952;-72
2023/04/16 05:59:28;;;;;;;40.33;17.52;;;;;;;8.98;84.26;98380.38;7388600;19;19943;-72
2023/04/16 06:01:54;;;;;;;43.00;18.15;;;;;;;8.98;84.21;98382.19;7391496;19;20478;-73
2023/04/16 06:04:21;;;;;;;42.17;19.73;;;;;;;8.86;84.53;98383.34;7383105;19;19926;-73
2023/04/16 06:06:48;;;;;;;46.47;21.30;;;;;;;8.82;84.44;98382.81;7389080;19;19936;-73
2023/04/16 06:09:15;;;;;;;50.67;21.35;;;;;;;8.79;84.71;98383.94;7391831;19;19926;-73
2023/04/16 06:11:42;;;;;;;43.55;22.33;;;;;;;8.88;84.70;98382.22;7392607;19;19986;-73
2023/04/16 06:14:09;;;;;;;46.85;22.80;;;;;;;9.02;84.05;98386.19;7394266;19;20271;-73
2023/04/16 06:16:36;;;;;;;47.75;22.27;;;;;;;8.82;84.31;98380.19;7390857;19;19922;-73
2023/04/16 06:19:04;;;;;;;47.55;21.40;;;;;;;8.78;84.81;98384.88;7393712;19;19946;-73
2023/04/16 06:21:31;;;;;;;44.58;20.83;;;;;;;8.84;84.86;98385.28;7381940;19;19915;-73
2023/04/16 06:23:58;;;;;;;50.15;20.13;;;;;;;8.95;84.51;98382.47;7391292;19;19964;-73
2023/04/16 06:26:25;;;;;;;45.95;19.42;;;;;;;8.94;84.41;98394.00;7389139;19;19959;-73
2023/04/16 06:28:52;;;;;;;46.85;21.10;;;;;;;9.00;84.42;98394.28;7392149;19;19919;-73
2023/04/16 06:31:19;;;;;;;45.83;20.42;;;;;;;8.92;84.42;98395.94;7386736;19;20308;-73
2023/04/16 06:33:46;;;;;;;43.30;21.67;;;;;;;8.87;84.69;98395.56;7395589;19;19929;-73
2023/04/16 06:36:13;;;;;;;52.58;22.75;;;;;;;8.79;85.01;98399.75;7392399;19;19918;-73
2023/04/16 06:38:40;;;;;;;50.45;21.05;;;;;;;8.81;85.08;98398.78;7389198;19;19941;-73
2023/04/16 06:41:06;;;;;;;55.40;21.67;;;;;;;8.85;84.78;98401.00;7388582;19;19939;-73
2023/04/16 06:43:33;;;;;;;52.33;21.25;;;;;;;8.75;85.15;98406.28;7389050;19;19918;-73
2023/04/16 06:46:00;;;;;;;48.22;21.23;;;;;;;8.89;85.09;98402.34;7390771;19;19926;-73
2023/04/16 06:48:27;;;;;;;45.22;21.13;;;;;;;8.86;84.86;98410.56;7388035;19;19956;-74
2023/04/16 06:50:54;;;;;;;52.22;22.42;;;;;;;8.92;84.83;98407.31;7385713;19;19947;-73
2023/04/16 06:53:22;;;;;;;51.42;22.73;;;;;;;8.91;84.78;98408.31;7387812;19;19926;-73
2023/04/16 06:55:49;;;;;;;44.60;21.25;;;;;;;8.78;85.33;98407.81;7390873;19;19949;-73
2023/04/16 06:58:16;;;;;;;51.03;21.73;;;;;;;8.89;85.12;98412.06;7388614;19;19911;-73
2023/04/16 07:00:44;;;;;;;45.78;21.15;;;;;;;8.84;84.95;98409.03;7386290;19;19946;-73
2023/04/16 07:03:10;;;;;;;49.80;23.92;;;;;;;8.79;85.27;98420.88;7390570;19;20917;-73
2023/04/16 07:05:38;;;;;;;42.47;19.60;;;;;;;8.95;84.73;98416.75;7387022;19;21828;-73
2023/04/16 07:08:05;;;;;;;46.85;20.38;;;;;;;9.06;84.37;98408.69;7390778;19;19922;-73
2023/04/16 07:10:31;;;;;;;47.83;20.10;;;;;;;9.09;84.30;98418.13;7388368;19;19914;-73
2023/04/16 07:13:00;;;;;;;44.75;21.10;;;;;;;8.92;84.56;98422.34;7390329;19;19918;-72
2023/04/16 07:15:27;;;;;;;50.25;22.77;;;;;;;8.83;84.97;98418.75;7385761;19;20255;-73
2023/04/16 07:17:54;;;;;;;52.35;21.70;;;;;;;8.76;85.02;98418.50;7389545;19;19923;-73
2023/04/16 07:20:21;;;;;;;45.20;19.10;;;;;;;8.92;84.72;98424.97;7380759;19;19926;-72
2023/04/16 07:22:48;;;;;;;45.10;19.52;;;;;;;8.96;84.54;98423.72;7389920;19;19914;-73
2023/04/16 07:25:14;;;;;;;48.10;20.85;;;;;;;9.06;84.29;98429.81;7390654;19;19921;-73
2023/04/16 07:27:41;;;;;;;45.55;19.67;;;;;;;9.05;84.39;98427.28;7387212;19;19918;-73
2023/04/16 07:30:08;;;;;;;46.20;20.63;;;;;;;9.18;83.96;98427.78;7388204;19;19922;-74
2023/04/16 07:32:35;;;;;;;45.25;20.77;;;;;;;9.14;84.14;98429.06;7385143;19;19947;-73
2023/04/16 07:35:02;;;;;;;44.85;20.40;;;;;;;9.13;84.02;98433.50;7385656;19;19923;-74
2023/04/16 07:37:29;;;;;;;50.40;23.38;;;;;;;9.12;84.14;98436.31;7381693;19;19926;-73
2023/04/16 07:39:56;;;;;;;47.95;20.75;;;;;;;9.20;84.34;98434.59;7389858;19;19935;-74
2023/04/16 07:42:23;;;;;;;50.05;21.50;;;;;;;9.13;84.58;98436.13;7380700;19;20252;-73
2023/04/16 07:44:50;;;;;;;45.10;20.38;;;;;;;9.28;84.36;98438.31;7383562;19;19918;-74
2023/04/16 07:47:16;;;;;;;43.08;19.58;;;;;;;9.29;84.16;98440.78;7380296;19;19935;-74
2023/04/16 07:49:43;;;;;;;41.47;20.73;;;;;;;9.26;84.13;98446.38;7379058;19;19949;-74
2023/04/16 07:52:10;;;;;;;47.10;19.80;;;;;;;9.04;84.71;98446.75;7378368;19;19943;-74
2023/04/16 07:54:37;;;;;;;45.97;19.13;;;;;;;9.11;84.28;98451.31;7382400;19;19930;-74
2023/04/16 07:57:04;;;;;;;39.83;18.08;;;;;;;9.22;83.97;98448.47;7386987;19;19914;-74
2023/04/16 07:59:31;;;;;;;43.80;21.73;;;;;;;9.11;84.09;98453.94;7381968;19;19979;-74
2023/04/16 08:01:57;;;;;;;46.67;23.23;;;;;;;9.05;84.44;98458.97;7377775;19;20278;-74
2023/04/16 08:04:24;;;;;;;37.33;17.92;;;;;;;9.19;84.01;98461.97;7372990;19;19918;-74
2023/04/16 08:06:52;;;;;;;42.10;18.92;;;;;;;9.16;83.94;98458.78;7380994;19;19915;-74
2023/04/16 08:09:20;;;;;;;42.95;19.25;;;;;;;9.17;83.94;98468.38;7386012;19;19926;-74
2023/04/16 08:11:48;;;;;;;39.45;18.60;;;;;;;9.20;83.95;98471.53;7384339;19;19977;-73
2023/04/16 08:14:15;;;;;;;42.03;22.25;;;;;;;9.14;83.85;98468.66;7386667;19;20208;-73
2023/04/16 08:16:42;;;;;;;42.97;18.83;;;;;;;9.16;84.10;98467.56;7383523;19;19978;-73
2023/04/16 08:19:09;;;;;;;43.50;19.42;;;;;;;9.11;84.48;98469.78;7384550;19;19943;-73
2023/04/16 08:21:36;;;;;;;45.25;19.02;;;;;;;9.17;84.18;98474.47;7378802;19;20368;-74
2023/04/16 08:24:03;;;;;;;41.00;18.33;;;;;;;9.18;84.15;98476.13;7384163;19;22384;-74
2023/04/16 08:26:30;;;;;;;37.00;18.75;;;;;;;9.27;83.78;98482.38;7380085;19;20334;-74
2023/04/16 08:28:56;;;;;;;41.05;18.25;;;;;;;9.16;84.27;98483.38;7385927;19;19923;-73
2023/04/16 08:31:23;;;;;;;39.95;18.90;;;;;;;9.08;84.40;98480.59;7380875;19;19914;-74
2023/04/16 08:33:50;;;;;;;43.90;19.27;;;;;;;9.09;84.46;98487.56;7385698;19;19921;-73
2023/04/16 08:36:17;;;;;;;41.05;18.05;;;;;;;9.14;84.29;98487.16;7381488;19;19942;-74
2023/04/16 08:38:44;;;;;;;37.38;17.98;;;;;;;9.13;84.59;98488.94;7377804;19;19922;-73
2023/04/16 08:41:12;;;;;;;38.78;19.13;;;;;;;9.13;84.74;98499.50;7383609;19;20329;-74
2023/04/16 08:43:43;;;;;;;38.88;18.92;;;;;;;9.10;84.84;98499.78;7378289;19;19914;-73
2023/04/16 08:46:11;;;;;;;33.75;17.92;;;;;;;9.15;84.43;98497.53;7387635;19;21276;-73
2023/04/16 08:48:41;;;;;;;35.88;17.00;;;;;;;9.22;84.52;98497.81;7379462;19;19919;-73
2023/04/16 08:51:09;;;;;;;38.25;19.48;;;;;;;9.26;84.93;98499.16;7377452;19;19919;-74
2023/04/16 08:53:48;;;;;;;41.20;19.42;;;;;;;9.16;85.14;98498.38;7370177;19;19930;-74
2023/04/16 08:56:19;;;;;;;39.78;17.92;;;;;;;9.43;84.50;98494.97;7379656;19;19939;-74
2023/04/16 08:58:46;;;;;;;42.38;19.70;;;;;;;9.27;84.66;98513.19;7373818;19;19939;-74
2023/04/16 09:01:13;;;;;;;38.25;18.95;;;;;;;9.11;84.95;98506.75;7376404;19;19922;-74
2023/04/16 09:03:40;;;;;;;38.63;19.77;;;;;;;9.17;84.77;98498.25;7378127;19;19925;-74
2023/04/16 09:06:08;;;;;;;37.03;17.90;;;;;;;9.13;84.92;98507.41;7382982;19;19926;-74
2023/04/16 09:08:36;;;;;;;39.90;18.85;;;;;;;9.21;84.57;98511.97;7382471;19;19915;-73
2023/04/16 09:11:03;;;;;;;43.70;19.05;;;;;;;9.25;84.53;98512.53;7381852;19;19919;-74
2023/04/16 09:13:30;;;;;;;36.50;17.20;;;;;;;9.26;84.56;98516.81;7381117;19;19926;-74
2023/04/16 09:15:58;;;;;;;37.53;17.05;;;;;;;9.33;84.34;98520.56;7384072;19;20656;-73
2023/04/16 09:18:26;;;;;;;37.28;20.23;;;;;;;9.32;84.42;98518.88;7384423;19;20280;-73
2023/04/16 09:20:55;;;;;;;33.83;17.10;;;;;;;9.25;84.66;98510.72;7378881;19;19918;-73
2023/04/16 09:23:22;;;;;;;34.58;17.90;;;;;;;9.23;84.41;98524.06;7386463;19;19918;-73
2023/04/16 09:25:48;;;;;;;31.77;16.13;;;;;;;9.31;84.13;98520.69;7380305;19;19954;-72
2023/04/16 09:28:41;;;;;;;38.28;18.52;;;;;;;9.17;84.67;98518.53;7379240;19;19923;-73
2023/04/16 09:31:15;;;;;;;39.00;18.85;;;;;;;9.11;84.96;98527.84;7381159;19;19926;-73
2023/04/16 09:33:43;;;;;;;37.58;19.00;;;;;;;9.21;84.68;98527.81;7380332;19;19947;-73
2023/04/16 09:36:10;;;;;;;41.20;19.90;;;;;;;9.30;84.48;98531.41;7383192;19;19983;-74
2023/04/16 09:38:47;;;;;;;36.25;17.98;;;;;;;9.29;84.31;98537.66;7371479;19;19922;-73
2023/04/16 09:41:15;;;;;;;34.83;18.40;;;;;;;9.10;84.49;98534.09;7382564;19;19919;-74
2023/04/16 09:43:53;;;;;;;34.35;18.40;;;;;;;9.22;84.20;98534.78;7377982;19;19914;-73
2023/04/16 09:46:20;;;;;;;40.75;18.90;;;;;;;9.25;84.38;98538.94;7385552;19;19918;-73
2023/04/16 09:48:47;;;;;;;36.20;19.75;;;;;;;9.23;84.42;98536.44;7375596;19;21783;-73
2023/04/16 09:51:14;;;;;;;37.08;17.70;;;;;;;9.30;84.50;98541.97;7368563;19;20321;-73
2023/04/16 09:53:41;;;;;;;35.50;17.55;;;;;;;9.39;84.29;98546.38;7376448;19;19963;-73
2023/04/16 09:56:07;;;;;;;36.90;18.35;;;;;;;9.47;83.89;98546.50;7383493;19;20498;-73
2023/04/16 09:58:35;;;;;;;31.88;19.02;;;;;;;9.48;83.95;98545.53;7376412;19;20282;-73
2023/04/16 10:01:09;;;;;;;36.72;18.27;;;;;;;9.52;83.67;98551.34;7380077;19;19914;-72
2023/04/16 10:03:39;;;;;;;36.22;17.55;;;;;;;9.43;84.00;98547.78;7378001;19;19974;-72
2023/04/16 10:06:18;;;;;;;35.03;17.45;;;;;;;9.41;84.10;98549.72;7384361;19;19922;-72
2023/04/16 10:08:49;;;;;;;35.72;17.38;;;;;;;9.52;83.87;98552.16;7385881;19;19915;-73
2023/04/16 10:11:17;;;;;;;39.50;18.30;;;;;;;9.56;83.82;98558.84;7386419;19;19924;-73
2023/04/16 10:13:44;;;;;;;39.42;18.60;;;;;;;9.37;84.15;98556.25;7386795;19;20367;-73
2023/04/16 10:16:12;;;;;;;33.03;17.60;;;;;;;9.18;84.67;98567.69;7387677;19;19939;-73
2023/04/16 10:18:40;;;;;;;36.83;18.92;;;;;;;9.17;84.48;98566.03;7383165;19;20295;-73
2023/04/16 10:21:07;;;;;;;35.30;16.40;;;;;;;9.22;84.79;98566.44;7385588;19;19935;-73
2023/04/16 10:23:34;;;;;;;45.30;20.25;;;;;;;9.29;84.47;98562.25;7377830;19;19918;-73
2023/04/16 10:26:01;;;;;;;35.10;16.55;;;;;;;9.33;84.42;98570.72;7388766;19;20324;-73
2023/04/16 10:28:29;;;;;;;36.53;17.27;;;;;;;9.39;84.15;98564.88;7382930;19;19951;-73
2023/04/16 10:30:57;;;;;;;35.28;16.90;;;;;;;9.35;84.35;98566.16;7388872;19;19919;-72
2023/04/16 10:33:26;;;;;;;34.90;17.27;;;;;;;9.28;84.79;98572.97;7383433;19;19914;-72
2023/04/16 10:36:09;;;;;;;39.17;17.92;;;;;;;9.32;84.57;98567.25;7378875;19;19963;-74
2023/04/16 10:38:49;;;;;;;39.00;17.33;;;;;;;9.31;84.56;98567.38;7381188;19;20352;-73
2023/04/16 10:41:16;;;;;;;37.75;18.85;;;;;;;9.22;84.71;98579.66;7387969;19;19922;-72
2023/04/16 10:43:45;;;;;;;36.50;17.13;;;;;;;9.27;84.61;98580.06;7383942;19;19935;-72
2023/04/16 10:46:22;;;;;;;34.83;16.73;;;;;;;9.38;84.62;98571.13;7387161;19;20607;-72
2023/04/16 10:48:52;;;;;;;34.92;17.17;;;;;;;9.32;84.65;98571.69;7383698;19;19918;-72
2023/04/16 10:51:33;;;;;;;36.33;18.55;;;;;;;9.41;84.82;98570.84;7384216;19;20311;-73
2023/04/16 10:54:18;;;;;;;32.40;16.67;;;;;;;9.37;84.94;98575.59;7385151;19;19922;-72
2023/04/16 10:56:46;;;;;;;34.78;16.95;;;;;;;9.45;84.42;98567.78;7382690;19;19929;-72
2023/04/16 10:59:17;;;;;;;35.25;16.90;;;;;;;9.47;84.94;98572.06;7386308;19;19922;-72
2023/04/16 11:01:46;;;;;;;36.97;18.58;;;;;;;9.51;84.85;98569.00;7381552;19;20470;-72
2023/04/16 11:04:18;;;;;;;31.65;15.95;;;;;;;9.64;84.56;98571.31;7389156;19;19923;-72
2023/04/16 11:07:10;;;;;;;33.65;16.30;;;;;;;9.47;84.82;98575.53;7383795;19;19919;-73
2023/04/16 11:09:52;;;;;;;28.30;13.88;;;;;;;9.57;84.79;98578.97;7386247;19;19918;-72
2023/04/16 11:12:26;;;;;;;31.80;14.13;;;;;;;9.57;84.63;98576.34;7388025;19;19922;-72
2023/04/16 11:15:13;;;;;;;30.65;14.88;;;;;;;9.40;85.21;98579.72;7385556;19;20021;-72
2023/04/16 11:17:42;;;;;;;31.55;14.18;;;;;;;9.47;84.72;98578.19;7380982;19;19947;-72
2023/04/16 11:20:26;;;;;;;25.73;14.35;;;;;;;9.58;84.18;98590.38;7388049;19;20261;-72
2023/04/16 11:22:55;;;;;;;29.88;17.20;;;;;;;9.48;84.36;98582.50;7384505;19;20407;-72
2023/04/16 11:25:23;;;;;;;24.42;12.57;;;;;;;9.48;84.43;98581.66;7384769;19;21151;-72
2023/04/16 11:27:51;;;;;;;29.02;12.27;;;;;;;9.40;84.54;98579.72;7379857;19;19918;-72
2023/04/16 11:30:28;;;;;;;29.98;13.90;;;;;;;9.39;84.63;98581.53;7381351;19;19922;-73